TFM - Tactical Decision Aid (Experimental) INFO Settings

ID: Runway Winds: METAR Board: Map:

Katl - Atlanta-Hartsfield Jackson Intl

Updated at: 0705 UTC 21 Oct 2014
Latest TAF at: 0542 UTC 21 Oct 2014

TAF Board

Time0652Z21/08Z21/09Z21/10Z21/11Z21/12Z21/13Z21/14Z21/15Z21/16Z21/17Z21/18Z21/19Z21/20Z
TypeOBSPRVLPRVLPRVLPRVLPRVLPRVLPRVLPRVLPRVLPRVLPRVLPRVLPRVL
VIS10>6>6>6>6>6>6>6>6>6>6>6>6>6
CIG----------------------------
CoverCLRFEWFEWFEWFEWFEWFEWFEWFEWFEWFEWFEWFEWFEW
FltCat--VFRVFRVFRVFRVFRVFRVFRVFRVFRVFRVFRVFRVFR
WX----------------------------
WDir310300300300300300300300320320320320320320
WSpd55555555101010101010
WGst----------------171717171717
TAF
KATL 210542Z 2106/2212 30005KT P6SM FEW150
  FM211500 32010G17KT P6SM FEW250
  FM220000 33007KT P6SM SKC


METAR
KATL 210652Z 31005KT 10SM CLR 14/10 A3000 RMK AO2 SLP156 T01390100
KATL 210552Z 27003KT 10SM CLR 14/10 A3001 RMK AO2 SLP158 T01390100 10183 20139 58005

TAF/METAR Board Legend

Hazard VFR MVFR IFR LIFR
Visibility (sm) >5 3≤X≤5 1≤X<3 <1
Ceiling (100 ft) >30 10≤X≤30 5≤X<10 <5
Wind Speed (kt) <10 10≤X<20 20≤X<30 ≥30
Wind Gust (kt) <15 15≤X<25 25≤X<35 ≥35
Weather No Wx Reported VCTS,-TS,-FZRA TS,FZRA +TS,+FZRA




Page loaded:  07:05 UTC  |   12:05 AM Pacific  |   01:05 AM Mountain  |   02:05 AM Central  |   03:05 AM Eastern

 

ADVISORIES

FORECASTS

FORECASTS

OBSERVATIONS

USER TOOLS

ABOUT US